sensor_id;sensor_type;location;lat;lon;timestamp;P1;durP1;ratioP1;P2;durP2;ratioP2
13079;SDS011;6606;49.154;9.280;2022-11-18T00:01:27;2.23;;;0.73;;
13079;SDS011;6606;49.154;9.280;2022-11-18T00:03:54;3.10;;;0.80;;
13079;SDS011;6606;49.154;9.280;2022-11-18T00:06:21;0.90;;;0.80;;
13079;SDS011;6606;49.154;9.280;2022-11-18T00:08:49;1.47;;;0.97;;
13079;SDS011;6606;49.154;9.280;2022-11-18T00:11:18;1.90;;;0.80;;
13079;SDS011;6606;49.154;9.280;2022-11-18T00:14:00;2.50;;;0.80;;
13079;SDS011;6606;49.154;9.280;2022-11-18T00:16:46;2.00;;;0.90;;
13079;SDS011;6606;49.154;9.280;2022-11-18T00:19:13;0.80;;;0.80;;
13079;SDS011;6606;49.154;9.280;2022-11-18T00:21:40;2.33;;;0.90;;
13079;SDS011;6606;49.154;9.280;2022-11-18T00:24:07;2.27;;;1.03;;
13079;SDS011;6606;49.154;9.280;2022-11-18T00:26:34;1.80;;;0.90;;
13079;SDS011;6606;49.154;9.280;2022-11-18T00:29:02;2.57;;;0.90;;
13079;SDS011;6606;49.154;9.280;2022-11-18T00:31:29;1.20;;;0.70;;
13079;SDS011;6606;49.154;9.280;2022-11-18T00:33:57;2.40;;;0.90;;
13079;SDS011;6606;49.154;9.280;2022-11-18T00:36:23;1.43;;;0.60;;
13079;SDS011;6606;49.154;9.280;2022-11-18T00:38:50;2.47;;;0.90;;
13079;SDS011;6606;49.154;9.280;2022-11-18T00:41:17;2.30;;;0.70;;
13079;SDS011;6606;49.154;9.280;2022-11-18T00:43:43;1.57;;;0.90;;
13079;SDS011;6606;49.154;9.280;2022-11-18T00:46:10;1.47;;;0.80;;
13079;SDS011;6606;49.154;9.280;2022-11-18T00:48:37;2.23;;;0.90;;
13079;SDS011;6606;49.154;9.280;2022-11-18T00:51:10;2.43;;;0.90;;
13079;SDS011;6606;49.154;9.280;2022-11-18T00:53:39;1.00;;;0.90;;
13079;SDS011;6606;49.154;9.280;2022-11-18T00:56:06;1.40;;;0.80;;
13079;SDS011;6606;49.154;9.280;2022-11-18T00:58:33;2.57;;;1.00;;
13079;SDS011;6606;49.154;9.280;2022-11-18T01:01:00;2.00;;;0.90;;
13079;SDS011;6606;49.154;9.280;2022-11-18T01:03:27;1.43;;;0.90;;
13079;SDS011;6606;49.154;9.280;2022-11-18T01:05:55;1.10;;;0.90;;
13079;SDS011;6606;49.154;9.280;2022-11-18T01:08:23;1.20;;;0.80;;
13079;SDS011;6606;49.154;9.280;2022-11-18T01:10:50;1.70;;;0.90;;
13079;SDS011;6606;49.154;9.280;2022-11-18T01:13:18;1.57;;;0.83;;
13079;SDS011;6606;49.154;9.280;2022-11-18T01:15:45;1.23;;;0.90;;
13079;SDS011;6606;49.154;9.280;2022-11-18T01:18:14;1.53;;;1.00;;
13079;SDS011;6606;49.154;9.280;2022-11-18T01:20:41;2.57;;;0.97;;
13079;SDS011;6606;49.154;9.280;2022-11-18T01:23:08;1.33;;;0.80;;
13079;SDS011;6606;49.154;9.280;2022-11-18T01:25:36;1.83;;;1.10;;
13079;SDS011;6606;49.154;9.280;2022-11-18T01:28:03;2.23;;;1.10;;
13079;SDS011;6606;49.154;9.280;2022-11-18T01:30:31;1.60;;;0.80;;
13079;SDS011;6606;49.154;9.280;2022-11-18T01:32:59;1.23;;;0.73;;
13079;SDS011;6606;49.154;9.280;2022-11-18T01:35:26;1.17;;;0.90;;
13079;SDS011;6606;49.154;9.280;2022-11-18T01:37:52;1.07;;;0.80;;
13079;SDS011;6606;49.154;9.280;2022-11-18T01:40:19;1.77;;;1.03;;
13079;SDS011;6606;49.154;9.280;2022-11-18T01:42:47;1.53;;;0.80;;
13079;SDS011;6606;49.154;9.280;2022-11-18T01:45:18;2.27;;;1.00;;
13079;SDS011;6606;49.154;9.280;2022-11-18T01:47:50;1.43;;;0.90;;
13079;SDS011;6606;49.154;9.280;2022-11-18T01:50:23;1.57;;;0.90;;
13079;SDS011;6606;49.154;9.280;2022-11-18T01:52:51;1.63;;;1.00;;
13079;SDS011;6606;49.154;9.280;2022-11-18T01:55:24;1.87;;;1.03;;
13079;SDS011;6606;49.154;9.280;2022-11-18T01:57:55;3.20;;;1.37;;
13079;SDS011;6606;49.154;9.280;2022-11-18T02:00:25;2.30;;;1.20;;
13079;SDS011;6606;49.154;9.280;2022-11-18T02:02:52;1.93;;;1.00;;
13079;SDS011;6606;49.154;9.280;2022-11-18T02:05:19;2.33;;;1.10;;
13079;SDS011;6606;49.154;9.280;2022-11-18T02:07:47;2.07;;;1.10;;
13079;SDS011;6606;49.154;9.280;2022-11-18T02:10:19;1.23;;;0.97;;
13079;SDS011;6606;49.154;9.280;2022-11-18T02:12:48;2.50;;;0.97;;
13079;SDS011;6606;49.154;9.280;2022-11-18T02:15:17;1.87;;;1.00;;
13079;SDS011;6606;49.154;9.280;2022-11-18T02:17:54;2.23;;;1.10;;
13079;SDS011;6606;49.154;9.280;2022-11-18T02:20:31;2.23;;;1.17;;
13079;SDS011;6606;49.154;9.280;2022-11-18T02:29:10;2.40;;;1.00;;
13079;SDS011;6606;49.154;9.280;2022-11-18T02:31:44;1.73;;;1.10;;
13079;SDS011;6606;49.154;9.280;2022-11-18T02:34:20;1.50;;;1.10;;
13079;SDS011;6606;49.154;9.280;2022-11-18T02:36:58;2.97;;;1.20;;
13079;SDS011;6606;49.154;9.280;2022-11-18T02:39:29;2.63;;;1.30;;
13079;SDS011;6606;49.154;9.280;2022-11-18T02:41:58;2.57;;;1.20;;
13079;SDS011;6606;49.154;9.280;2022-11-18T02:44:31;2.50;;;1.20;;
13079;SDS011;6606;49.154;9.280;2022-11-18T02:47:02;2.90;;;1.30;;
13079;SDS011;6606;49.154;9.280;2022-11-18T02:49:35;3.10;;;1.37;;
13079;SDS011;6606;49.154;9.280;2022-11-18T02:52:04;2.27;;;1.30;;
13079;SDS011;6606;49.154;9.280;2022-11-18T02:54:34;3.53;;;1.43;;
13079;SDS011;6606;49.154;9.280;2022-11-18T02:57:03;3.67;;;1.47;;
13079;SDS011;6606;49.154;9.280;2022-11-18T02:59:32;3.87;;;1.20;;
13079;SDS011;6606;49.154;9.280;2022-11-18T03:01:59;3.57;;;1.50;;
13079;SDS011;6606;49.154;9.280;2022-11-18T03:04:26;2.77;;;1.03;;
13079;SDS011;6606;49.154;9.280;2022-11-18T03:06:55;2.23;;;1.00;;
13079;SDS011;6606;49.154;9.280;2022-11-18T03:09:30;3.03;;;1.00;;
13079;SDS011;6606;49.154;9.280;2022-11-18T03:12:01;1.30;;;0.97;;
13079;SDS011;6606;49.154;9.280;2022-11-18T03:14:39;1.37;;;0.83;;
13079;SDS011;6606;49.154;9.280;2022-11-18T03:17:12;2.53;;;0.90;;
13079;SDS011;6606;49.154;9.280;2022-11-18T03:19:50;3.00;;;1.00;;
13079;SDS011;6606;49.154;9.280;2022-11-18T03:22:29;1.90;;;0.90;;
13079;SDS011;6606;49.154;9.280;2022-11-18T03:25:02;2.17;;;1.00;;
13079;SDS011;6606;49.154;9.280;2022-11-18T03:27:32;1.17;;;0.77;;
13079;SDS011;6606;49.154;9.280;2022-11-18T03:30:03;4.53;;;1.00;;
13079;SDS011;6606;49.154;9.280;2022-11-18T03:32:35;2.40;;;1.00;;
13079;SDS011;6606;49.154;9.280;2022-11-18T03:35:06;1.90;;;0.80;;
13079;SDS011;6606;49.154;9.280;2022-11-18T03:37:35;1.40;;;0.70;;
13079;SDS011;6606;49.154;9.280;2022-11-18T03:40:05;1.27;;;0.70;;
13079;SDS011;6606;49.154;9.280;2022-11-18T03:42:38;1.77;;;0.80;;
13079;SDS011;6606;49.154;9.280;2022-11-18T03:45:11;2.33;;;1.00;;
13079;SDS011;6606;49.154;9.280;2022-11-18T03:47:43;3.20;;;1.10;;
13079;SDS011;6606;49.154;9.280;2022-11-18T03:50:17;2.00;;;0.83;;
13079;SDS011;6606;49.154;9.280;2022-11-18T03:52:48;1.40;;;0.73;;
13079;SDS011;6606;49.154;9.280;2022-11-18T03:55:19;1.43;;;0.90;;
13079;SDS011;6606;49.154;9.280;2022-11-18T03:57:49;3.53;;;0.90;;
13079;SDS011;6606;49.154;9.280;2022-11-18T04:00:21;4.57;;;0.90;;
13079;SDS011;6606;49.154;9.280;2022-11-18T04:02:48;0.90;;;0.63;;
13079;SDS011;6606;49.154;9.280;2022-11-18T04:05:16;1.60;;;0.70;;
13079;SDS011;6606;49.154;9.280;2022-11-18T04:07:46;2.20;;;0.70;;
13079;SDS011;6606;49.154;9.280;2022-11-18T04:10:23;2.17;;;0.80;;
13079;SDS011;6606;49.154;9.280;2022-11-18T04:12:56;2.03;;;1.00;;
13079;SDS011;6606;49.154;9.280;2022-11-18T04:15:28;5.30;;;0.90;;
13079;SDS011;6606;49.154;9.280;2022-11-18T04:17:56;1.53;;;0.70;;
13079;SDS011;6606;49.154;9.280;2022-11-18T04:20:23;1.57;;;0.60;;
13079;SDS011;6606;49.154;9.280;2022-11-18T04:22:52;2.17;;;0.70;;
13079;SDS011;6606;49.154;9.280;2022-11-18T04:25:19;1.40;;;0.77;;
13079;SDS011;6606;49.154;9.280;2022-11-18T04:27:45;1.83;;;0.80;;
13079;SDS011;6606;49.154;9.280;2022-11-18T04:30:12;2.20;;;0.70;;
13079;SDS011;6606;49.154;9.280;2022-11-18T04:32:40;1.70;;;0.57;;
13079;SDS011;6606;49.154;9.280;2022-11-18T04:35:07;0.83;;;0.50;;
13079;SDS011;6606;49.154;9.280;2022-11-18T04:37:34;0.97;;;0.60;;
13079;SDS011;6606;49.154;9.280;2022-11-18T04:40:01;0.90;;;0.57;;
13079;SDS011;6606;49.154;9.280;2022-11-18T04:42:28;1.47;;;0.67;;
13079;SDS011;6606;49.154;9.280;2022-11-18T04:44:55;1.47;;;0.60;;
13079;SDS011;6606;49.154;9.280;2022-11-18T04:47:21;2.20;;;0.63;;
13079;SDS011;6606;49.154;9.280;2022-11-18T04:49:49;1.47;;;0.60;;
13079;SDS011;6606;49.154;9.280;2022-11-18T04:52:16;2.27;;;0.90;;
13079;SDS011;6606;49.154;9.280;2022-11-18T04:54:44;0.73;;;0.40;;
13079;SDS011;6606;49.154;9.280;2022-11-18T04:57:10;4.27;;;0.87;;
13079;SDS011;6606;49.154;9.280;2022-11-18T04:59:37;0.97;;;0.50;;
13079;SDS011;6606;49.154;9.280;2022-11-18T05:02:04;2.53;;;0.50;;
13079;SDS011;6606;49.154;9.280;2022-11-18T05:04:32;0.70;;;0.50;;
13079;SDS011;6606;49.154;9.280;2022-11-18T05:07:01;1.13;;;0.60;;
13079;SDS011;6606;49.154;9.280;2022-11-18T05:09:29;2.83;;;0.70;;
13079;SDS011;6606;49.154;9.280;2022-11-18T05:11:56;0.70;;;0.50;;
13079;SDS011;6606;49.154;9.280;2022-11-18T05:14:40;1.50;;;0.70;;
13079;SDS011;6606;49.154;9.280;2022-11-18T05:17:07;2.53;;;0.63;;
13079;SDS011;6606;49.154;9.280;2022-11-18T05:19:36;0.67;;;0.60;;
13079;SDS011;6606;49.154;9.280;2022-11-18T05:22:04;0.83;;;0.70;;
13079;SDS011;6606;49.154;9.280;2022-11-18T05:24:31;1.60;;;0.80;;
13079;SDS011;6606;49.154;9.280;2022-11-18T05:26:58;1.87;;;0.70;;
13079;SDS011;6606;49.154;9.280;2022-11-18T05:29:25;2.53;;;0.70;;
13079;SDS011;6606;49.154;9.280;2022-11-18T05:31:51;1.17;;;0.70;;
13079;SDS011;6606;49.154;9.280;2022-11-18T05:34:18;1.13;;;0.70;;
13079;SDS011;6606;49.154;9.280;2022-11-18T05:36:45;2.20;;;0.83;;
13079;SDS011;6606;49.154;9.280;2022-11-18T05:39:13;1.93;;;0.80;;
13079;SDS011;6606;49.154;9.280;2022-11-18T05:41:40;0.80;;;0.60;;
13079;SDS011;6606;49.154;9.280;2022-11-18T05:44:24;2.03;;;1.20;;
13079;SDS011;6606;49.154;9.280;2022-11-18T05:46:50;2.90;;;1.40;;
13079;SDS011;6606;49.154;9.280;2022-11-18T05:49:17;1.40;;;0.80;;
13079;SDS011;6606;49.154;9.280;2022-11-18T05:51:44;2.90;;;0.90;;
13079;SDS011;6606;49.154;9.280;2022-11-18T05:54:10;1.40;;;0.80;;
13079;SDS011;6606;49.154;9.280;2022-11-18T05:56:42;2.77;;;0.70;;
13079;SDS011;6606;49.154;9.280;2022-11-18T05:59:10;1.73;;;0.70;;
13079;SDS011;6606;49.154;9.280;2022-11-18T06:01:37;1.50;;;0.60;;
13079;SDS011;6606;49.154;9.280;2022-11-18T06:04:10;1.27;;;0.83;;
13079;SDS011;6606;49.154;9.280;2022-11-18T06:06:40;2.03;;;0.80;;
13079;SDS011;6606;49.154;9.280;2022-11-18T06:09:08;1.80;;;0.90;;
13079;SDS011;6606;49.154;9.280;2022-11-18T06:11:39;2.73;;;0.77;;
13079;SDS011;6606;49.154;9.280;2022-11-18T06:14:10;2.60;;;1.00;;
13079;SDS011;6606;49.154;9.280;2022-11-18T06:16:42;1.57;;;1.00;;
13079;SDS011;6606;49.154;9.280;2022-11-18T06:19:13;2.03;;;0.90;;
13079;SDS011;6606;49.154;9.280;2022-11-18T06:21:40;1.13;;;0.80;;
13079;SDS011;6606;49.154;9.280;2022-11-18T06:24:07;2.20;;;0.97;;
13079;SDS011;6606;49.154;9.280;2022-11-18T06:26:35;1.60;;;1.20;;
13079;SDS011;6606;49.154;9.280;2022-11-18T06:29:04;2.67;;;1.00;;
13079;SDS011;6606;49.154;9.280;2022-11-18T06:31:33;2.10;;;0.83;;
13079;SDS011;6606;49.154;9.280;2022-11-18T06:34:00;1.10;;;0.70;;
13079;SDS011;6606;49.154;9.280;2022-11-18T06:36:27;2.77;;;0.90;;
13079;SDS011;6606;49.154;9.280;2022-11-18T06:38:53;1.50;;;0.90;;
13079;SDS011;6606;49.154;9.280;2022-11-18T06:41:20;1.93;;;0.83;;
13079;SDS011;6606;49.154;9.280;2022-11-18T06:43:47;1.93;;;0.97;;
13079;SDS011;6606;49.154;9.280;2022-11-18T06:46:15;2.37;;;1.00;;
13079;SDS011;6606;49.154;9.280;2022-11-18T06:49:00;3.43;;;0.90;;
13079;SDS011;6606;49.154;9.280;2022-11-18T06:51:27;1.93;;;0.90;;
13079;SDS011;6606;49.154;9.280;2022-11-18T06:53:54;1.80;;;0.80;;
13079;SDS011;6606;49.154;9.280;2022-11-18T06:56:21;1.90;;;1.40;;
13079;SDS011;6606;49.154;9.280;2022-11-18T06:58:51;2.93;;;1.30;;
13079;SDS011;6606;49.154;9.280;2022-11-18T07:01:21;1.17;;;1.00;;
13079;SDS011;6606;49.154;9.280;2022-11-18T07:03:49;2.03;;;1.13;;
13079;SDS011;6606;49.154;9.280;2022-11-18T07:06:16;4.10;;;0.93;;
13079;SDS011;6606;49.154;9.280;2022-11-18T07:08:44;2.90;;;1.17;;
13079;SDS011;6606;49.154;9.280;2022-11-18T07:11:13;1.87;;;1.10;;
13079;SDS011;6606;49.154;9.280;2022-11-18T07:13:41;2.47;;;0.90;;
13079;SDS011;6606;49.154;9.280;2022-11-18T07:16:09;1.97;;;0.90;;
13079;SDS011;6606;49.154;9.280;2022-11-18T07:18:39;1.30;;;0.90;;
13079;SDS011;6606;49.154;9.280;2022-11-18T07:21:08;2.27;;;1.13;;
13079;SDS011;6606;49.154;9.280;2022-11-18T07:23:36;3.33;;;1.47;;
13079;SDS011;6606;49.154;9.280;2022-11-18T07:26:03;1.47;;;1.17;;
13079;SDS011;6606;49.154;9.280;2022-11-18T07:28:30;1.30;;;1.10;;
13079;SDS011;6606;49.154;9.280;2022-11-18T07:31:00;2.23;;;1.10;;
13079;SDS011;6606;49.154;9.280;2022-11-18T07:33:28;1.67;;;1.30;;
13079;SDS011;6606;49.154;9.280;2022-11-18T07:35:56;2.17;;;1.20;;
13079;SDS011;6606;49.154;9.280;2022-11-18T07:38:26;2.03;;;1.40;;
13079;SDS011;6606;49.154;9.280;2022-11-18T07:40:52;2.10;;;1.10;;
13079;SDS011;6606;49.154;9.280;2022-11-18T07:43:19;1.37;;;1.00;;
13079;SDS011;6606;49.154;9.280;2022-11-18T07:45:46;2.70;;;1.33;;
13079;SDS011;6606;49.154;9.280;2022-11-18T07:48:12;2.10;;;1.07;;
13079;SDS011;6606;49.154;9.280;2022-11-18T07:50:39;1.30;;;1.20;;
13079;SDS011;6606;49.154;9.280;2022-11-18T07:53:07;2.37;;;1.30;;
13079;SDS011;6606;49.154;9.280;2022-11-18T07:55:34;6.77;;;1.30;;
13079;SDS011;6606;49.154;9.280;2022-11-18T07:58:00;2.03;;;1.20;;
13079;SDS011;6606;49.154;9.280;2022-11-18T08:00:27;2.00;;;1.20;;
13079;SDS011;6606;49.154;9.280;2022-11-18T08:02:53;2.47;;;1.27;;
13079;SDS011;6606;49.154;9.280;2022-11-18T08:05:20;2.80;;;1.40;;
13079;SDS011;6606;49.154;9.280;2022-11-18T08:07:47;1.50;;;1.30;;
13079;SDS011;6606;49.154;9.280;2022-11-18T08:10:15;1.43;;;1.20;;
13079;SDS011;6606;49.154;9.280;2022-11-18T08:12:42;1.37;;;1.10;;
13079;SDS011;6606;49.154;9.280;2022-11-18T08:15:09;1.30;;;1.20;;
13079;SDS011;6606;49.154;9.280;2022-11-18T08:17:36;1.37;;;1.10;;
13079;SDS011;6606;49.154;9.280;2022-11-18T08:20:02;1.53;;;1.10;;
13079;SDS011;6606;49.154;9.280;2022-11-18T08:22:29;2.00;;;0.90;;
13079;SDS011;6606;49.154;9.280;2022-11-18T08:24:56;1.20;;;0.90;;
13079;SDS011;6606;49.154;9.280;2022-11-18T08:27:24;1.33;;;1.00;;
13079;SDS011;6606;49.154;9.280;2022-11-18T08:29:50;1.37;;;0.90;;
13079;SDS011;6606;49.154;9.280;2022-11-18T08:32:17;2.13;;;1.10;;
13079;SDS011;6606;49.154;9.280;2022-11-18T08:34:44;3.57;;;2.40;;
13079;SDS011;6606;49.154;9.280;2022-11-18T08:37:11;2.77;;;1.20;;
13079;SDS011;6606;49.154;9.280;2022-11-18T08:39:38;1.53;;;1.10;;
13079;SDS011;6606;49.154;9.280;2022-11-18T08:42:04;1.50;;;1.00;;
13079;SDS011;6606;49.154;9.280;2022-11-18T08:44:32;1.70;;;1.00;;
13079;SDS011;6606;49.154;9.280;2022-11-18T08:46:59;1.90;;;0.97;;
13079;SDS011;6606;49.154;9.280;2022-11-18T08:49:25;1.03;;;0.90;;
13079;SDS011;6606;49.154;9.280;2022-11-18T08:51:52;2.70;;;1.50;;
13079;SDS011;6606;49.154;9.280;2022-11-18T08:54:19;1.70;;;1.00;;
13079;SDS011;6606;49.154;9.280;2022-11-18T08:56:45;1.87;;;1.00;;
13079;SDS011;6606;49.154;9.280;2022-11-18T08:59:14;2.10;;;1.30;;
13079;SDS011;6606;49.154;9.280;2022-11-18T09:01:42;2.03;;;1.13;;
13079;SDS011;6606;49.154;9.280;2022-11-18T09:04:09;2.80;;;1.20;;
13079;SDS011;6606;49.154;9.280;2022-11-18T09:06:36;1.53;;;1.03;;
13079;SDS011;6606;49.154;9.280;2022-11-18T09:09:04;1.60;;;1.00;;
13079;SDS011;6606;49.154;9.280;2022-11-18T09:11:32;1.87;;;0.87;;
13079;SDS011;6606;49.154;9.280;2022-11-18T09:13:59;2.53;;;1.03;;
13079;SDS011;6606;49.154;9.280;2022-11-18T09:16:27;1.10;;;1.00;;
13079;SDS011;6606;49.154;9.280;2022-11-18T09:18:57;1.40;;;1.20;;
13079;SDS011;6606;49.154;9.280;2022-11-18T09:21:24;1.17;;;1.00;;
13079;SDS011;6606;49.154;9.280;2022-11-18T09:23:51;1.67;;;0.90;;
13079;SDS011;6606;49.154;9.280;2022-11-18T09:26:19;1.33;;;0.93;;
13079;SDS011;6606;49.154;9.280;2022-11-18T09:28:48;2.20;;;1.20;;
13079;SDS011;6606;49.154;9.280;2022-11-18T09:31:15;2.00;;;1.00;;
13079;SDS011;6606;49.154;9.280;2022-11-18T09:33:43;2.20;;;1.20;;
13079;SDS011;6606;49.154;9.280;2022-11-18T09:36:12;1.93;;;1.00;;
13079;SDS011;6606;49.154;9.280;2022-11-18T09:38:39;1.40;;;1.00;;
13079;SDS011;6606;49.154;9.280;2022-11-18T09:41:09;1.80;;;1.40;;
13079;SDS011;6606;49.154;9.280;2022-11-18T09:43:59;1.20;;;1.00;;
13079;SDS011;6606;49.154;9.280;2022-11-18T09:46:35;1.70;;;1.20;;
13079;SDS011;6606;49.154;9.280;2022-11-18T09:49:13;2.27;;;1.10;;
13079;SDS011;6606;49.154;9.280;2022-11-18T09:51:47;2.20;;;1.10;;
13079;SDS011;6606;49.154;9.280;2022-11-18T09:54:16;2.03;;;1.23;;
13079;SDS011;6606;49.154;9.280;2022-11-18T09:56:46;2.30;;;1.20;;
13079;SDS011;6606;49.154;9.280;2022-11-18T09:59:14;1.60;;;1.10;;
13079;SDS011;6606;49.154;9.280;2022-11-18T10:01:42;1.93;;;1.17;;
13079;SDS011;6606;49.154;9.280;2022-11-18T10:04:14;4.10;;;1.40;;
13079;SDS011;6606;49.154;9.280;2022-11-18T10:06:42;3.90;;;1.50;;
13079;SDS011;6606;49.154;9.280;2022-11-18T10:09:16;2.63;;;1.40;;
13079;SDS011;6606;49.154;9.280;2022-11-18T10:11:55;2.70;;;1.30;;
13079;SDS011;6606;49.154;9.280;2022-11-18T10:14:37;2.43;;;1.77;;
13079;SDS011;6606;49.154;9.280;2022-11-18T10:17:17;1.63;;;1.50;;
13079;SDS011;6606;49.154;9.280;2022-11-18T10:20:07;2.37;;;1.30;;
13079;SDS011;6606;49.154;9.280;2022-11-18T10:22:46;3.27;;;1.20;;
13079;SDS011;6606;49.154;9.280;2022-11-18T10:25:18;1.63;;;1.10;;
13079;SDS011;6606;49.154;9.280;2022-11-18T10:27:46;2.73;;;1.77;;
13079;SDS011;6606;49.154;9.280;2022-11-18T10:30:15;2.10;;;1.30;;
13079;SDS011;6606;49.154;9.280;2022-11-18T10:32:56;1.90;;;1.30;;
13079;SDS011;6606;49.154;9.280;2022-11-18T10:35:26;1.90;;;1.70;;
13079;SDS011;6606;49.154;9.280;2022-11-18T10:38:02;2.90;;;2.17;;
13079;SDS011;6606;49.154;9.280;2022-11-18T10:40:33;1.10;;;1.00;;
13079;SDS011;6606;49.154;9.280;2022-11-18T10:43:03;2.10;;;1.30;;
13079;SDS011;6606;49.154;9.280;2022-11-18T10:45:30;2.87;;;1.30;;
13079;SDS011;6606;49.154;9.280;2022-11-18T10:48:06;1.50;;;1.27;;
13079;SDS011;6606;49.154;9.280;2022-11-18T10:50:34;1.60;;;1.20;;
13079;SDS011;6606;49.154;9.280;2022-11-18T10:53:04;1.67;;;1.20;;
13079;SDS011;6606;49.154;9.280;2022-11-18T10:55:33;1.67;;;1.23;;
13079;SDS011;6606;49.154;9.280;2022-11-18T10:58:00;1.73;;;1.60;;
13079;SDS011;6606;49.154;9.280;2022-11-18T11:00:40;2.43;;;1.60;;
13079;SDS011;6606;49.154;9.280;2022-11-18T11:03:26;2.40;;;1.47;;
13079;SDS011;6606;49.154;9.280;2022-11-18T11:08:57;2.27;;;1.60;;
13079;SDS011;6606;49.154;9.280;2022-11-18T11:11:27;3.10;;;1.90;;
13079;SDS011;6606;49.154;9.280;2022-11-18T11:14:05;2.53;;;1.63;;
13079;SDS011;6606;49.154;9.280;2022-11-18T11:16:41;2.23;;;1.80;;
13079;SDS011;6606;49.154;9.280;2022-11-18T11:19:12;3.30;;;2.03;;
13079;SDS011;6606;49.154;9.280;2022-11-18T11:21:42;3.80;;;2.33;;
13079;SDS011;6606;49.154;9.280;2022-11-18T11:24:09;4.13;;;3.27;;
13079;SDS011;6606;49.154;9.280;2022-11-18T11:26:40;3.87;;;3.47;;
13079;SDS011;6606;49.154;9.280;2022-11-18T11:29:14;2.20;;;2.00;;
13079;SDS011;6606;49.154;9.280;2022-11-18T11:31:52;4.57;;;3.97;;
13079;SDS011;6606;49.154;9.280;2022-11-18T11:34:27;2.20;;;2.00;;
13079;SDS011;6606;49.154;9.280;2022-11-18T11:37:02;4.17;;;2.20;;
13079;SDS011;6606;49.154;9.280;2022-11-18T11:39:42;2.57;;;2.00;;
13079;SDS011;6606;49.154;9.280;2022-11-18T11:42:23;2.70;;;1.80;;
13079;SDS011;6606;49.154;9.280;2022-11-18T11:45:12;3.50;;;2.13;;
13079;SDS011;6606;49.154;9.280;2022-11-18T11:47:46;2.17;;;1.90;;
13079;SDS011;6606;49.154;9.280;2022-11-18T11:50:22;3.30;;;2.20;;
13079;SDS011;6606;49.154;9.280;2022-11-18T11:53:07;3.53;;;1.77;;
13079;SDS011;6606;49.154;9.280;2022-11-18T11:55:46;2.93;;;2.43;;
13079;SDS011;6606;49.154;9.280;2022-11-18T11:58:26;3.50;;;2.50;;
13079;SDS011;6606;49.154;9.280;2022-11-18T12:01:11;3.27;;;1.83;;
13079;SDS011;6606;49.154;9.280;2022-11-18T12:03:44;2.67;;;1.97;;
13079;SDS011;6606;49.154;9.280;2022-11-18T12:06:12;3.20;;;2.40;;
13079;SDS011;6606;49.154;9.280;2022-11-18T12:08:42;2.47;;;2.00;;
13079;SDS011;6606;49.154;9.280;2022-11-18T12:11:16;3.60;;;2.27;;
13079;SDS011;6606;49.154;9.280;2022-11-18T12:13:54;5.17;;;2.10;;
13079;SDS011;6606;49.154;9.280;2022-11-18T12:16:24;2.30;;;2.10;;
13079;SDS011;6606;49.154;9.280;2022-11-18T12:18:56;3.83;;;2.10;;
13079;SDS011;6606;49.154;9.280;2022-11-18T12:24:28;4.33;;;2.33;;
13079;SDS011;6606;49.154;9.280;2022-11-18T12:26:57;4.17;;;2.33;;
13079;SDS011;6606;49.154;9.280;2022-11-18T12:29:28;4.17;;;2.53;;
13079;SDS011;6606;49.154;9.280;2022-11-18T12:32:02;4.30;;;2.17;;
13079;SDS011;6606;49.154;9.280;2022-11-18T12:34:39;5.87;;;2.70;;
13079;SDS011;6606;49.154;9.280;2022-11-18T12:40:06;3.60;;;2.43;;
13079;SDS011;6606;49.154;9.280;2022-11-18T12:42:36;4.10;;;2.23;;
13079;SDS011;6606;49.154;9.280;2022-11-18T12:45:47;2.80;;;2.27;;
13079;SDS011;6606;49.154;9.280;2022-11-18T12:54:27;2.60;;;2.20;;
13079;SDS011;6606;49.154;9.280;2022-11-18T12:56:58;3.40;;;1.70;;
13079;SDS011;6606;49.154;9.280;2022-11-18T12:59:31;2.87;;;1.40;;
13079;SDS011;6606;49.154;9.280;2022-11-18T13:02:02;3.33;;;1.60;;
13079;SDS011;6606;49.154;9.280;2022-11-18T13:04:44;3.63;;;1.43;;
13079;SDS011;6606;49.154;9.280;2022-11-18T13:07:11;3.87;;;1.60;;
13079;SDS011;6606;49.154;9.280;2022-11-18T13:09:52;3.00;;;1.40;;
13079;SDS011;6606;49.154;9.280;2022-11-18T13:12:19;3.40;;;1.47;;
13079;SDS011;6606;49.154;9.280;2022-11-18T13:14:46;1.90;;;1.40;;
13079;SDS011;6606;49.154;9.280;2022-11-18T13:17:32;2.43;;;1.40;;
13079;SDS011;6606;49.154;9.280;2022-11-18T13:20:19;3.30;;;1.50;;
13079;SDS011;6606;49.154;9.280;2022-11-18T13:22:55;3.53;;;1.40;;
13079;SDS011;6606;49.154;9.280;2022-11-18T13:25:41;2.50;;;1.13;;
13079;SDS011;6606;49.154;9.280;2022-11-18T13:28:11;2.30;;;1.20;;
13079;SDS011;6606;49.154;9.280;2022-11-18T13:30:51;3.23;;;1.40;;
13079;SDS011;6606;49.154;9.280;2022-11-18T13:33:25;4.87;;;1.40;;
13079;SDS011;6606;49.154;9.280;2022-11-18T13:35:52;3.03;;;1.30;;
13079;SDS011;6606;49.154;9.280;2022-11-18T13:38:20;3.90;;;1.60;;
13079;SDS011;6606;49.154;9.280;2022-11-18T13:40:48;2.53;;;1.20;;
13079;SDS011;6606;49.154;9.280;2022-11-18T13:43:36;1.57;;;1.10;;
13079;SDS011;6606;49.154;9.280;2022-11-18T13:46:03;1.40;;;1.07;;
13079;SDS011;6606;49.154;9.280;2022-11-18T13:48:37;2.47;;;1.50;;
13079;SDS011;6606;49.154;9.280;2022-11-18T13:51:10;2.97;;;1.50;;
13079;SDS011;6606;49.154;9.280;2022-11-18T13:53:37;3.17;;;1.10;;
13079;SDS011;6606;49.154;9.280;2022-11-18T13:56:06;6.00;;;1.77;;
13079;SDS011;6606;49.154;9.280;2022-11-18T13:58:49;5.67;;;2.37;;
13079;SDS011;6606;49.154;9.280;2022-11-18T14:01:18;3.73;;;1.60;;
13079;SDS011;6606;49.154;9.280;2022-11-18T14:03:50;3.43;;;1.40;;
13079;SDS011;6606;49.154;9.280;2022-11-18T14:06:23;3.40;;;1.30;;
13079;SDS011;6606;49.154;9.280;2022-11-18T14:09:04;5.40;;;1.50;;
13079;SDS011;6606;49.154;9.280;2022-11-18T14:11:33;4.30;;;1.60;;
13079;SDS011;6606;49.154;9.280;2022-11-18T14:14:02;4.27;;;1.80;;
13079;SDS011;6606;49.154;9.280;2022-11-18T14:16:30;2.17;;;1.23;;
13079;SDS011;6606;49.154;9.280;2022-11-18T14:18:59;2.57;;;1.30;;
13079;SDS011;6606;49.154;9.280;2022-11-18T14:21:26;5.23;;;1.50;;
13079;SDS011;6606;49.154;9.280;2022-11-18T14:23:54;3.83;;;1.70;;
13079;SDS011;6606;49.154;9.280;2022-11-18T14:26:25;3.47;;;1.60;;
13079;SDS011;6606;49.154;9.280;2022-11-18T14:28:53;5.20;;;1.90;;
13079;SDS011;6606;49.154;9.280;2022-11-18T14:31:22;3.17;;;1.67;;
13079;SDS011;6606;49.154;9.280;2022-11-18T14:34:10;5.27;;;1.93;;
13079;SDS011;6606;49.154;9.280;2022-11-18T14:36:43;5.10;;;1.80;;
13079;SDS011;6606;49.154;9.280;2022-11-18T14:39:18;7.03;;;1.80;;
13079;SDS011;6606;49.154;9.280;2022-11-18T14:41:49;5.37;;;1.93;;
13079;SDS011;6606;49.154;9.280;2022-11-18T14:44:16;6.77;;;2.03;;
13079;SDS011;6606;49.154;9.280;2022-11-18T14:46:45;3.13;;;1.70;;
13079;SDS011;6606;49.154;9.280;2022-11-18T14:49:15;4.33;;;1.60;;
13079;SDS011;6606;49.154;9.280;2022-11-18T14:51:43;5.70;;;1.90;;
13079;SDS011;6606;49.154;9.280;2022-11-18T14:54:11;6.40;;;1.60;;
13079;SDS011;6606;49.154;9.280;2022-11-18T14:56:39;9.00;;;2.13;;
13079;SDS011;6606;49.154;9.280;2022-11-18T14:59:09;5.87;;;1.90;;
13079;SDS011;6606;49.154;9.280;2022-11-18T15:01:36;6.83;;;1.80;;
13079;SDS011;6606;49.154;9.280;2022-11-18T15:04:03;4.73;;;1.73;;
13079;SDS011;6606;49.154;9.280;2022-11-18T15:06:31;6.20;;;1.87;;
13079;SDS011;6606;49.154;9.280;2022-11-18T15:08:58;3.87;;;1.57;;
13079;SDS011;6606;49.154;9.280;2022-11-18T15:11:25;5.00;;;1.80;;
13079;SDS011;6606;49.154;9.280;2022-11-18T15:13:52;6.40;;;2.30;;
13079;SDS011;6606;49.154;9.280;2022-11-18T15:16:19;5.60;;;2.90;;
13079;SDS011;6606;49.154;9.280;2022-11-18T15:18:48;4.97;;;2.87;;
13079;SDS011;6606;49.154;9.280;2022-11-18T15:21:17;6.03;;;2.13;;
13079;SDS011;6606;49.154;9.280;2022-11-18T15:23:46;5.27;;;2.53;;
13079;SDS011;6606;49.154;9.280;2022-11-18T15:26:15;2.90;;;1.90;;
13079;SDS011;6606;49.154;9.280;2022-11-18T15:28:44;5.07;;;2.20;;
13079;SDS011;6606;49.154;9.280;2022-11-18T15:31:12;6.33;;;2.20;;
13079;SDS011;6606;49.154;9.280;2022-11-18T15:33:38;4.63;;;2.07;;
13079;SDS011;6606;49.154;9.280;2022-11-18T15:36:08;3.20;;;1.97;;
13079;SDS011;6606;49.154;9.280;2022-11-18T15:38:37;4.30;;;2.20;;
13079;SDS011;6606;49.154;9.280;2022-11-18T15:41:05;4.63;;;2.03;;